Weather at Camp Pendleton MCAS (Munn Field) Airport

Public forecast

Using degrees Fahrenheit for public forecast. Weather courtesy of forecast.io.

Current aviation weather report (METAR) for Camp Pendleton MCAS (Munn Field) Airport

Retrieved 2021/09/18 05:55 UTC (32 minutes ago):

KNFG 180555Z AUTO 00000KT 10SM CLR 18/13 A3003 RMK AO2 SLP169 T01830128 10228 20183 51012

Closest aviation forecast (TAF) to Camp Pendleton MCAS (Munn Field) Airport

Closest forecast is Mc Clellan-Palomar Airport, 11.0 nm (20.5 km) SSE. Retrieved 2021/09/18 06:22 UTC (5 minutes ago):

TAF KCRQ 180520Z 1806/1906 VRB04KT P6SM BKN015 FM181800 VRB05KT P6SM SCT020 SCT150 FM182100 25008KT P6SM FEW020 SCT150 FM190200 VRB04KT P6SM SCT150 FM190500 VRB04KT P6SM BKN015